createdAt,value
2023-05-03T00:00:17.251Z,8.00
2023-05-03T00:02:44.829Z,8.10
2023-05-03T00:05:13.114Z,8.10
2023-05-03T00:07:43.951Z,8.20
2023-05-03T00:10:13.313Z,8.20
2023-05-03T00:12:40.880Z,8.20
2023-05-03T00:15:08.618Z,8.30
2023-05-03T00:17:35.951Z,8.30
2023-05-03T00:20:04.818Z,8.30
2023-05-03T00:22:32.284Z,8.30
2023-05-03T00:25:02.408Z,8.20
2023-05-03T00:27:29.350Z,8.10
2023-05-03T00:29:56.291Z,8.00
2023-05-03T00:32:23.300Z,7.90
2023-05-03T00:34:57.086Z,7.80
2023-05-03T00:37:25.003Z,7.70
2023-05-03T00:39:52.238Z,7.60
2023-05-03T00:42:19.149Z,7.50
2023-05-03T00:44:45.930Z,7.40
2023-05-03T00:47:13.120Z,7.40
2023-05-03T00:49:40.121Z,7.40
2023-05-03T00:52:06.954Z,7.40
2023-05-03T00:54:35.302Z,7.40
2023-05-03T00:57:04.592Z,7.30
2023-05-03T00:59:32.650Z,7.30
2023-05-03T01:01:59.621Z,7.40
2023-05-03T01:04:27.002Z,7.30
2023-05-03T01:07:07.073Z,7.40
2023-05-03T01:09:37.435Z,7.40
2023-05-03T01:12:13.938Z,7.40
2023-05-03T01:14:55.725Z,7.30
2023-05-03T01:17:29.121Z,7.30
2023-05-03T01:20:11.233Z,7.30
2023-05-03T01:22:38.478Z,7.20
2023-05-03T01:25:13.104Z,7.20
2023-05-03T01:27:41.008Z,7.20
2023-05-03T01:30:12.506Z,7.10
2023-05-03T01:32:48.088Z,7.00
2023-05-03T01:35:44.262Z,6.90
2023-05-03T01:38:12.160Z,6.80
2023-05-03T01:41:02.326Z,6.80
2023-05-03T01:43:32.861Z,6.80
2023-05-03T01:45:59.621Z,6.80
2023-05-03T01:48:26.408Z,6.80
2023-05-03T01:50:53.103Z,6.70
2023-05-03T01:53:20.173Z,6.70
2023-05-03T01:55:46.822Z,6.60
2023-05-03T01:58:13.587Z,6.50
2023-05-03T02:00:40.220Z,6.40
2023-05-03T02:03:07.013Z,6.40
2023-05-03T02:05:33.796Z,6.30
2023-05-03T02:08:00.452Z,6.30
2023-05-03T02:10:27.158Z,6.30
2023-05-03T02:12:53.852Z,6.20
2023-05-03T02:15:20.700Z,6.20
2023-05-03T02:17:49.349Z,6.20
2023-05-03T02:20:16.487Z,6.10
2023-05-03T02:22:43.283Z,6.10
2023-05-03T02:25:10.101Z,6.10
2023-05-03T02:27:36.751Z,6.00
2023-05-03T02:30:04.372Z,6.00
2023-05-03T02:32:32.038Z,6.00
2023-05-03T02:34:58.680Z,5.90
2023-05-03T02:37:25.399Z,5.90
2023-05-03T02:39:52.080Z,5.90
2023-05-03T02:42:18.727Z,5.90
2023-05-03T02:44:46.441Z,5.80
2023-05-03T02:47:13.150Z,5.90
2023-05-03T02:49:39.797Z,5.80
2023-05-03T02:52:06.482Z,5.80
2023-05-03T02:54:33.404Z,5.70
2023-05-03T02:57:00.050Z,5.70
2023-05-03T02:59:26.733Z,5.70
2023-05-03T03:01:53.525Z,5.60
2023-05-03T03:04:20.231Z,5.60
2023-05-03T03:06:46.985Z,5.60
2023-05-03T03:09:13.728Z,5.50
2023-05-03T03:11:41.221Z,5.50
2023-05-03T03:14:07.823Z,5.50
2023-05-03T03:16:34.664Z,5.50
2023-05-03T03:19:01.417Z,5.50
2023-05-03T03:21:29.009Z,5.40
2023-05-03T03:23:56.734Z,5.40
2023-05-03T03:26:23.514Z,5.40
2023-05-03T03:28:50.351Z,5.30
2023-05-03T03:31:18.285Z,5.30
2023-05-03T03:33:45.084Z,5.30
2023-05-03T03:36:11.976Z,5.30
2023-05-03T03:38:38.793Z,5.30
2023-05-03T03:41:06.282Z,5.20
2023-05-03T03:43:33.103Z,5.20
2023-05-03T03:45:59.958Z,5.30
2023-05-03T03:48:26.667Z,5.40
2023-05-03T03:50:53.483Z,5.40
2023-05-03T03:53:20.141Z,5.40
2023-05-03T03:55:47.319Z,5.40
2023-05-03T03:58:14.941Z,5.40
2023-05-03T04:00:42.689Z,5.40
2023-05-03T04:03:09.541Z,5.40
2023-05-03T04:05:36.419Z,5.50
2023-05-03T04:08:03.105Z,5.50
2023-05-03T04:10:29.794Z,5.50
2023-05-03T04:12:56.562Z,5.50
2023-05-03T04:15:23.383Z,5.50
2023-05-03T04:17:50.188Z,5.60
2023-05-03T04:20:17.718Z,5.60
2023-05-03T04:22:44.547Z,5.70
2023-05-03T04:25:14.332Z,5.80
2023-05-03T04:27:41.177Z,5.90
2023-05-03T04:30:08.417Z,6.00
2023-05-03T04:32:37.709Z,6.20
2023-05-03T04:35:09.452Z,6.30
2023-05-03T04:37:40.585Z,6.40
2023-05-03T04:40:09.557Z,6.60
2023-05-03T04:42:36.496Z,6.70
2023-05-03T04:45:04.208Z,6.80
2023-05-03T04:47:30.965Z,7.00
2023-05-03T04:49:58.075Z,7.10
2023-05-03T04:52:28.087Z,7.10
2023-05-03T04:54:54.850Z,7.10
2023-05-03T04:57:21.534Z,7.20
2023-05-03T04:59:48.304Z,7.40
2023-05-03T05:02:14.987Z,7.50
2023-05-03T05:04:41.818Z,7.70
2023-05-03T05:07:08.518Z,7.80
2023-05-03T05:09:35.233Z,7.80
2023-05-03T05:12:02.071Z,7.90
2023-05-03T05:14:30.696Z,8.00
2023-05-03T05:16:57.808Z,7.90
2023-05-03T05:19:24.607Z,7.80
2023-05-03T05:21:52.055Z,7.80
2023-05-03T05:24:18.842Z,7.80
2023-05-03T05:26:45.913Z,7.60
2023-05-03T05:29:12.806Z,7.60
2023-05-03T05:31:39.782Z,7.80
2023-05-03T05:34:06.667Z,7.80
2023-05-03T05:36:33.369Z,7.90
2023-05-03T05:39:00.380Z,7.80
2023-05-03T05:41:27.184Z,7.90
2023-05-03T05:43:53.877Z,7.90
2023-05-03T05:46:23.785Z,8.10
2023-05-03T05:48:51.369Z,8.20
2023-05-03T05:51:18.423Z,8.30
2023-05-03T05:53:45.194Z,8.40
2023-05-03T05:56:11.906Z,8.20
2023-05-03T05:58:38.877Z,8.20
2023-05-03T06:01:05.807Z,8.50
2023-05-03T06:03:33.582Z,8.60
2023-05-03T06:06:00.928Z,8.70
2023-05-03T06:08:27.719Z,8.70
2023-05-03T06:10:54.429Z,8.90
2023-05-03T06:13:22.188Z,8.90
2023-05-03T06:15:49.023Z,9.00
2023-05-03T06:18:15.958Z,9.00
2023-05-03T06:20:42.753Z,9.00
2023-05-03T06:23:09.494Z,9.10
2023-05-03T06:25:36.437Z,9.00
2023-05-03T06:28:03.179Z,8.80
2023-05-03T06:30:30.136Z,9.20
2023-05-03T06:32:56.919Z,9.10
2023-05-03T06:35:23.755Z,9.30
2023-05-03T06:37:50.645Z,9.30
2023-05-03T06:40:18.209Z,9.70
2023-05-03T06:42:45.027Z,9.90
2023-05-03T06:45:11.949Z,9.90
2023-05-03T06:47:40.209Z,10.10
2023-05-03T06:50:07.634Z,10.00
2023-05-03T06:52:34.545Z,10.40
2023-05-03T06:55:01.496Z,10.50
2023-05-03T06:57:28.875Z,10.20
2023-05-03T06:59:55.994Z,10.40
2023-05-03T07:02:23.265Z,9.60
2023-05-03T07:04:50.535Z,9.80
2023-05-03T07:07:17.229Z,9.90
2023-05-03T07:09:44.219Z,10.10
2023-05-03T07:12:11.374Z,10.30
2023-05-03T07:14:39.574Z,10.60
2023-05-03T07:17:06.487Z,10.90
2023-05-03T07:19:33.248Z,11.10
2023-05-03T07:21:59.904Z,11.10
2023-05-03T07:24:26.578Z,11.20
2023-05-03T07:26:53.901Z,11.50
2023-05-03T07:29:21.069Z,11.90
2023-05-03T07:31:47.906Z,12.10
2023-05-03T07:34:14.901Z,12.00
2023-05-03T07:36:41.666Z,12.20
2023-05-03T07:39:08.548Z,12.20
2023-05-03T07:41:35.454Z,12.40
2023-05-03T07:44:02.243Z,12.30
2023-05-03T07:46:31.158Z,12.60
2023-05-03T07:48:58.946Z,12.60
2023-05-03T07:51:26.759Z,12.50
2023-05-03T07:53:53.559Z,12.60
2023-05-03T07:56:21.297Z,11.70
2023-05-03T07:58:50.931Z,11.90
2023-05-03T08:01:21.785Z,12.20
2023-05-03T08:03:51.806Z,12.30
2023-05-03T08:06:18.800Z,12.20
2023-05-03T08:08:45.673Z,11.70
2023-05-03T08:11:12.537Z,12.00
2023-05-03T08:13:39.218Z,12.30
2023-05-03T08:16:06.549Z,12.60
2023-05-03T08:18:33.260Z,12.90
2023-05-03T08:20:59.976Z,13.30
2023-05-03T08:23:26.787Z,13.60
2023-05-03T08:25:54.646Z,13.80
2023-05-03T08:28:21.545Z,13.80
2023-05-03T08:30:48.271Z,14.10
2023-05-03T08:33:15.030Z,14.50
2023-05-03T08:35:42.353Z,13.70
2023-05-03T08:38:09.263Z,14.30
2023-05-03T08:40:39.644Z,14.60
2023-05-03T08:43:10.332Z,14.50
2023-05-03T08:45:37.200Z,14.40
2023-05-03T08:48:04.735Z,14.40
2023-05-03T08:50:32.659Z,14.00
2023-05-03T08:53:00.290Z,14.50
2023-05-03T08:55:27.082Z,14.00
2023-05-03T08:57:53.870Z,13.90
2023-05-03T09:00:28.206Z,13.80
2023-05-03T09:02:54.902Z,13.60
2023-05-03T09:05:21.530Z,13.10
2023-05-03T09:08:12.685Z,13.30
2023-05-03T09:10:42.996Z,13.50
2023-05-03T09:13:10.692Z,13.20
2023-05-03T09:15:37.662Z,13.10
2023-05-03T09:18:08.631Z,13.20
2023-05-03T09:20:36.774Z,13.20
2023-05-03T09:23:03.735Z,12.80
2023-05-03T09:25:48.685Z,12.60
2023-05-03T09:28:17.077Z,12.80
2023-05-03T09:30:44.704Z,12.40
2023-05-03T09:33:11.864Z,12.60
2023-05-03T09:35:39.126Z,13.30
2023-05-03T09:38:06.225Z,13.60
2023-05-03T09:40:33.043Z,14.00
2023-05-03T09:43:11.309Z,14.40
2023-05-03T09:45:39.028Z,14.60
2023-05-03T09:48:07.235Z,14.40
2023-05-03T09:50:35.402Z,14.80
2023-05-03T09:53:06.744Z,15.40
2023-05-03T09:55:38.139Z,15.50
2023-05-03T09:58:09.080Z,15.40
2023-05-03T10:00:40.397Z,16.00
2023-05-03T10:03:09.726Z,15.90
2023-05-03T10:05:49.406Z,15.70
2023-05-03T10:08:32.543Z,15.30
2023-05-03T10:10:59.788Z,15.90
2023-05-03T10:13:26.974Z,15.60
2023-05-03T10:16:06.305Z,15.70
2023-05-03T10:18:37.916Z,15.30
2023-05-03T10:21:09.609Z,15.30
2023-05-03T10:23:36.263Z,15.80
2023-05-03T10:26:06.678Z,15.70
2023-05-03T10:28:34.157Z,15.90
2023-05-03T10:31:00.866Z,14.60
2023-05-03T10:33:35.137Z,14.40
2023-05-03T10:36:07.292Z,14.40
2023-05-03T10:38:34.010Z,14.10
2023-05-03T10:41:03.576Z,14.00
2023-05-03T10:43:30.624Z,14.40
2023-05-03T10:45:58.298Z,15.00
2023-05-03T10:48:25.430Z,14.90
2023-05-03T10:50:52.841Z,15.00
2023-05-03T10:53:32.472Z,15.70
2023-05-03T10:56:05.840Z,16.00
2023-05-03T10:58:43.197Z,16.00
2023-05-03T11:01:12.326Z,16.10
2023-05-03T11:04:10.048Z,16.30
2023-05-03T11:06:40.983Z,16.50
2023-05-03T11:09:10.123Z,16.60
2023-05-03T11:11:39.273Z,16.80
2023-05-03T11:14:09.756Z,16.70
2023-05-03T11:16:37.136Z,16.40
2023-05-03T11:19:04.020Z,17.20
2023-05-03T11:21:31.466Z,17.20
2023-05-03T11:23:59.366Z,17.70
2023-05-03T11:26:26.451Z,17.90
2023-05-03T11:28:54.293Z,17.70
2023-05-03T11:31:21.944Z,18.00
2023-05-03T11:33:49.638Z,18.30
2023-05-03T11:36:16.480Z,18.20
2023-05-03T11:38:43.571Z,18.40
2023-05-03T11:41:17.371Z,18.00
2023-05-03T11:43:46.059Z,18.00
2023-05-03T11:46:21.590Z,17.90
2023-05-03T11:48:48.580Z,17.60
2023-05-03T11:51:15.469Z,17.60
2023-05-03T11:53:43.946Z,16.80
2023-05-03T11:56:15.225Z,16.90
2023-05-03T11:58:53.906Z,17.30
2023-05-03T12:01:22.296Z,17.80
2023-05-03T12:03:54.140Z,17.70
2023-05-03T12:06:21.895Z,17.20
2023-05-03T12:08:50.151Z,16.80
2023-05-03T12:11:17.969Z,17.10
2023-05-03T12:13:47.582Z,17.00
2023-05-03T12:16:19.105Z,17.20
2023-05-03T12:19:03.394Z,17.00
2023-05-03T12:22:03.099Z,16.80
2023-05-03T12:24:34.635Z,16.50
2023-05-03T12:27:03.233Z,16.50
2023-05-03T12:29:34.705Z,16.50
2023-05-03T12:32:03.438Z,16.70
2023-05-03T12:34:33.856Z,16.20
2023-05-03T12:37:04.749Z,16.20
2023-05-03T12:39:33.430Z,16.10
2023-05-03T12:44:35.140Z,16.30
2023-05-03T12:47:02.722Z,16.60
2023-05-03T12:49:30.076Z,16.70
2023-05-03T12:54:33.379Z,17.30
2023-05-03T12:57:07.924Z,17.40
2023-05-03T12:59:42.330Z,17.50
2023-05-03T13:07:15.786Z,17.60
2023-05-03T13:12:34.106Z,17.30
2023-05-03T13:15:03.581Z,17.30
2023-05-03T13:17:31.658Z,16.90
2023-05-03T13:19:58.570Z,16.70
2023-05-03T13:22:25.505Z,16.70
2023-05-03T13:24:52.426Z,16.60
2023-05-03T13:27:19.233Z,17.00
2023-05-03T13:29:48.909Z,16.70
2023-05-03T13:32:17.008Z,16.70
2023-05-03T13:34:44.066Z,17.00
2023-05-03T13:37:11.577Z,17.00
2023-05-03T13:39:38.285Z,17.20
2023-05-03T13:42:04.963Z,17.70
2023-05-03T13:44:31.653Z,17.10
2023-05-03T13:46:58.364Z,17.50
2023-05-03T13:49:25.479Z,18.00
2023-05-03T13:51:52.403Z,18.10
2023-05-03T13:54:19.151Z,18.20
2023-05-03T13:56:45.912Z,18.20
2023-05-03T13:59:16.172Z,18.10
2023-05-03T14:01:43.477Z,17.50
2023-05-03T14:04:10.600Z,16.70
2023-05-03T14:06:40.319Z,17.00
2023-05-03T14:09:07.899Z,17.30
2023-05-03T14:11:34.687Z,17.40
2023-05-03T14:14:01.800Z,17.40
2023-05-03T14:18:58.414Z,17.60
2023-05-03T14:21:26.316Z,17.80
2023-05-03T14:23:54.176Z,17.70
2023-05-03T14:26:22.222Z,17.40
2023-05-03T14:28:49.013Z,17.20
2023-05-03T14:31:16.496Z,17.00
2023-05-03T14:33:43.348Z,16.70
2023-05-03T14:36:10.032Z,16.80
2023-05-03T14:38:37.228Z,17.10
2023-05-03T14:41:04.360Z,17.00
2023-05-03T14:43:31.497Z,17.20
2023-05-03T14:45:58.259Z,16.90
2023-05-03T14:48:25.017Z,16.90
2023-05-03T14:50:52.208Z,17.10
2023-05-03T14:53:19.239Z,17.10
2023-05-03T14:55:46.431Z,16.60
2023-05-03T14:58:13.453Z,16.70
2023-05-03T15:00:41.070Z,16.80
2023-05-03T15:03:11.570Z,17.10
2023-05-03T15:05:46.485Z,17.30
2023-05-03T15:08:15.865Z,17.40
2023-05-03T15:10:47.696Z,17.60
2023-05-03T15:13:15.451Z,17.50
2023-05-03T15:15:45.967Z,17.60
2023-05-03T15:18:14.482Z,17.70
2023-05-03T15:20:41.403Z,17.90
2023-05-03T15:23:08.165Z,17.80
2023-05-03T15:25:35.515Z,17.70
2023-05-03T15:28:04.254Z,17.20
2023-05-03T15:30:32.654Z,16.80
2023-05-03T15:32:59.981Z,16.40
2023-05-03T15:35:27.222Z,16.20
2023-05-03T15:37:53.920Z,16.60
2023-05-03T15:40:23.744Z,16.70
2023-05-03T15:42:51.812Z,16.80
2023-05-03T15:45:18.844Z,16.60
2023-05-03T15:47:46.199Z,16.90
2023-05-03T15:50:13.280Z,16.90
2023-05-03T15:52:39.994Z,17.00
2023-05-03T15:55:08.325Z,17.10
2023-05-03T15:57:35.659Z,17.00
2023-05-03T16:00:06.348Z,17.30
2023-05-03T16:02:33.450Z,17.40
2023-05-03T16:05:00.277Z,17.20
2023-05-03T16:07:27.242Z,17.00
2023-05-03T16:09:53.916Z,16.90
2023-05-03T16:12:21.211Z,17.10
2023-05-03T16:14:48.063Z,17.30
2023-05-03T16:17:14.813Z,17.40
2023-05-03T16:19:41.472Z,17.30
2023-05-03T16:22:08.195Z,17.30
2023-05-03T16:24:35.108Z,17.10
2023-05-03T16:27:03.523Z,17.30
2023-05-03T16:29:30.338Z,17.20
2023-05-03T16:31:57.045Z,17.10
2023-05-03T16:34:23.726Z,16.80
2023-05-03T16:36:50.771Z,17.00
2023-05-03T16:39:17.867Z,16.80
2023-05-03T16:41:44.594Z,16.90
2023-05-03T16:44:11.477Z,16.80
2023-05-03T16:46:41.284Z,16.90
2023-05-03T16:49:07.969Z,17.10
2023-05-03T16:51:34.693Z,17.30
2023-05-03T16:54:04.290Z,17.20
2023-05-03T16:56:31.358Z,17.20
2023-05-03T16:59:02.934Z,17.40
2023-05-03T17:01:29.634Z,17.30
2023-05-03T17:03:56.901Z,17.40
2023-05-03T17:06:23.638Z,17.30
2023-05-03T17:08:50.486Z,17.40
2023-05-03T17:11:17.258Z,17.30
2023-05-03T17:13:44.423Z,17.30
2023-05-03T17:16:15.067Z,17.10
2023-05-03T17:18:42.405Z,17.40
2023-05-03T17:21:10.244Z,17.30
2023-05-03T17:23:38.642Z,16.90
2023-05-03T17:26:08.369Z,16.90
2023-05-03T17:28:35.881Z,16.70
2023-05-03T17:31:03.382Z,16.70
2023-05-03T17:33:30.153Z,17.10
2023-05-03T17:35:57.091Z,16.80
2023-05-03T17:38:23.857Z,17.00
2023-05-03T17:40:50.691Z,16.90
2023-05-03T17:43:17.981Z,17.00
2023-05-03T17:45:46.086Z,16.80
2023-05-03T17:48:13.244Z,16.60
2023-05-03T17:50:41.723Z,16.20
2023-05-03T17:53:09.359Z,16.10
2023-05-03T17:55:37.980Z,15.80
2023-05-03T17:58:06.163Z,15.50
2023-05-03T18:00:33.630Z,15.40
2023-05-03T18:03:00.734Z,15.20
2023-05-03T18:05:28.033Z,15.10
2023-05-03T18:07:54.751Z,14.90
2023-05-03T18:10:22.439Z,14.90
2023-05-03T18:12:49.275Z,14.80
2023-05-03T18:15:16.233Z,14.70
2023-05-03T18:17:43.436Z,14.60
2023-05-03T18:20:10.787Z,14.50
2023-05-03T18:22:37.984Z,14.40
2023-05-03T18:25:07.459Z,14.30
2023-05-03T18:27:37.372Z,14.20
2023-05-03T18:30:06.624Z,14.10
2023-05-03T18:32:33.824Z,14.00
2023-05-03T18:35:00.882Z,13.90
2023-05-03T18:37:27.842Z,13.80
2023-05-03T18:39:54.656Z,13.60
2023-05-03T18:42:22.373Z,13.50
2023-05-03T18:44:49.285Z,13.40
2023-05-03T18:47:20.421Z,13.30
2023-05-03T18:49:53.054Z,13.20
2023-05-03T18:52:20.948Z,13.10
2023-05-03T18:54:48.019Z,13.00
2023-05-03T18:57:14.716Z,12.90
2023-05-03T18:59:52.601Z,12.80
2023-05-03T19:02:30.402Z,12.70
2023-05-03T19:04:57.475Z,12.60
2023-05-03T19:07:24.400Z,12.50
2023-05-03T19:09:55.196Z,12.50
2023-05-03T19:12:22.270Z,12.40
2023-05-03T19:14:49.100Z,12.30
2023-05-03T19:17:15.832Z,12.30
2023-05-03T19:19:42.483Z,12.20
2023-05-03T19:22:09.115Z,12.10
2023-05-03T19:24:36.152Z,12.10
2023-05-03T19:27:04.321Z,12.10
2023-05-03T19:29:31.079Z,12.00
2023-05-03T19:31:57.743Z,12.00
2023-05-03T19:34:24.597Z,11.90
2023-05-03T19:36:51.331Z,11.80
2023-05-03T19:39:18.057Z,11.80
2023-05-03T19:41:44.975Z,11.80
2023-05-03T19:44:12.195Z,11.70
2023-05-03T19:46:38.955Z,11.60
2023-05-03T19:49:05.796Z,11.50
2023-05-03T19:51:33.122Z,11.60
2023-05-03T19:54:02.990Z,11.60
2023-05-03T19:56:29.718Z,11.50
2023-05-03T19:58:56.690Z,11.40
2023-05-03T20:01:23.871Z,11.40
2023-05-03T20:03:53.459Z,11.30
2023-05-03T20:06:20.887Z,11.30
2023-05-03T20:08:47.634Z,11.30
2023-05-03T20:11:14.367Z,11.20
2023-05-03T20:13:41.020Z,11.20
2023-05-03T20:16:08.347Z,11.20
2023-05-03T20:18:35.424Z,11.20
2023-05-03T20:21:03.693Z,11.20
2023-05-03T20:23:30.544Z,11.10
2023-05-03T20:25:57.295Z,11.10
2023-05-03T20:28:24.420Z,11.00
2023-05-03T20:30:51.421Z,11.00
2023-05-03T20:33:18.288Z,10.80
2023-05-03T20:35:45.149Z,10.80
2023-05-03T20:38:11.878Z,10.80
2023-05-03T20:40:38.739Z,10.80
2023-05-03T20:43:05.602Z,10.70
2023-05-03T20:45:32.403Z,10.60
2023-05-03T20:47:59.226Z,10.60
2023-05-03T20:50:25.975Z,10.50
2023-05-03T20:52:52.696Z,10.50
2023-05-03T20:55:19.430Z,10.50
2023-05-03T20:57:46.164Z,10.50
2023-05-03T21:00:15.422Z,10.40
2023-05-03T21:02:43.097Z,10.40
2023-05-03T21:05:11.329Z,10.40
2023-05-03T21:07:38.607Z,10.30
2023-05-03T21:10:07.029Z,10.30
2023-05-03T21:12:34.726Z,10.30
2023-05-03T21:15:01.658Z,10.20
2023-05-03T21:17:28.521Z,10.20
2023-05-03T21:19:55.746Z,10.10
2023-05-03T21:22:22.649Z,10.20
2023-05-03T21:24:50.064Z,10.10
2023-05-03T21:27:19.084Z,10.00
2023-05-03T21:29:45.727Z,10.00
2023-05-03T21:32:13.138Z,10.00
2023-05-03T21:34:39.889Z,9.90
2023-05-03T21:37:07.153Z,9.90
2023-05-03T21:39:33.815Z,9.80
2023-05-03T21:42:00.430Z,9.80
2023-05-03T21:44:27.136Z,9.80
2023-05-03T21:46:53.982Z,9.80
2023-05-03T21:49:20.751Z,9.80
2023-05-03T21:51:47.461Z,9.80
2023-05-03T21:54:14.308Z,9.70
2023-05-03T21:56:41.031Z,9.70
2023-05-03T21:59:07.774Z,9.70
2023-05-03T22:01:34.497Z,9.70
2023-05-03T22:04:01.763Z,9.70
2023-05-03T22:06:28.590Z,9.70
2023-05-03T22:08:55.212Z,9.70
2023-05-03T22:11:21.883Z,9.60
2023-05-03T22:14:06.032Z,9.50
2023-05-03T22:16:34.429Z,9.50
2023-05-03T22:19:01.164Z,9.40
2023-05-03T22:21:27.832Z,9.40
2023-05-03T22:23:54.571Z,9.30
2023-05-03T22:26:21.216Z,9.30
2023-05-03T22:28:47.876Z,9.30
2023-05-03T22:31:14.591Z,9.20
2023-05-03T22:33:44.625Z,9.10
2023-05-03T22:36:12.390Z,9.10
2023-05-03T22:38:40.714Z,9.10
2023-05-03T22:41:09.573Z,9.00
2023-05-03T22:43:36.465Z,9.00
2023-05-03T22:46:03.282Z,9.10
2023-05-03T22:48:32.102Z,9.10
2023-05-03T22:50:58.939Z,9.20
2023-05-03T22:53:25.697Z,9.30
2023-05-03T22:56:06.419Z,9.30
2023-05-03T22:58:34.381Z,9.40
2023-05-03T23:01:01.199Z,9.40
2023-05-03T23:03:28.056Z,9.30
2023-05-03T23:05:55.216Z,9.40
2023-05-03T23:08:22.296Z,9.40
2023-05-03T23:10:48.944Z,9.30
2023-05-03T23:13:15.751Z,9.30
2023-05-03T23:15:42.542Z,9.20
2023-05-03T23:18:09.263Z,9.20
2023-05-03T23:20:36.110Z,9.20
2023-05-03T23:23:02.741Z,9.20
2023-05-03T23:25:29.714Z,9.10
2023-05-03T23:27:56.650Z,9.10
2023-05-03T23:30:24.202Z,9.10
2023-05-03T23:32:51.528Z,9.00
2023-05-03T23:35:18.836Z,9.00
2023-05-03T23:37:45.813Z,9.00
2023-05-03T23:40:12.934Z,8.90
2023-05-03T23:42:41.290Z,9.00
2023-05-03T23:45:09.539Z,8.90
2023-05-03T23:47:36.958Z,8.90
2023-05-03T23:50:04.682Z,8.90
2023-05-03T23:52:31.620Z,8.90
2023-05-03T23:54:58.472Z,8.90
2023-05-03T23:57:25.284Z,8.80
2023-05-03T23:59:52.201Z,8.90
